Time;durP1;ratioP1;P1;durP2;ratioP2;P2;SDS_P1;SDS_P2;PMS_P1;PMS_P2;Temp;Humidity;BMP_temperature;BMP_pressure;BME280_temperature;BME280_humidity;BME280_pressure;Samples;Min_cycle;Max_cycle;Signal;HPM_P1;HPM_P2
2024/01/31 00:01:45;;;;;;;14.27;6.07;;;;;;;16.03;45.75;103109.66;5011669;28;20058;-61
2024/01/31 00:04:11;;;;;;;9.63;6.38;;;;;;;16.04;46.15;103116.81;4998798;28;20042;-61
2024/01/31 00:06:36;;;;;;;16.05;6.32;;;;;;;16.04;45.71;103126.75;5016654;28;20392;-62
2024/01/31 00:09:02;;;;;;;14.52;6.20;;;;;;;16.03;45.39;103125.88;5016376;28;20454;-61
2024/01/31 00:11:28;;;;;;;13.60;6.28;;;;;;;16.03;45.96;103125.00;5015492;28;20056;-62
2024/01/31 00:13:55;;;;;;;18.83;7.13;;;;;;;15.97;46.46;103126.31;5015332;28;20038;-61
2024/01/31 00:16:20;;;;;;;19.40;7.70;;;;;;;15.97;46.05;103123.59;5016154;28;20054;-62
2024/01/31 00:18:46;;;;;;;18.42;7.57;;;;;;;15.96;46.39;103129.13;5016469;28;20409;-61
2024/01/31 00:21:11;;;;;;;16.50;7.15;;;;;;;15.95;46.42;103122.84;5015450;28;20025;-62
2024/01/31 00:23:36;;;;;;;16.77;7.75;;;;;;;15.95;45.72;103119.28;5016263;28;20029;-62
2024/01/31 00:26:02;;;;;;;14.95;6.82;;;;;;;15.95;46.95;103127.38;5014757;28;20064;-62
2024/01/31 00:28:27;;;;;;;11.45;6.70;;;;;;;15.94;45.51;103125.69;5016420;28;20093;-62
2024/01/31 00:30:53;;;;;;;11.70;7.15;;;;;;;15.93;46.67;103129.34;4998563;28;20056;-62
2024/01/31 00:33:18;;;;;;;13.30;6.38;;;;;;;15.88;46.77;103126.09;5015974;28;20075;-62
2024/01/31 00:35:43;;;;;;;15.20;7.85;;;;;;;15.92;47.06;103127.59;5014826;28;20026;-62
2024/01/31 00:38:09;;;;;;;12.05;6.28;;;;;;;15.90;46.95;103126.84;5014711;28;20026;-61
2024/01/31 00:40:34;;;;;;;16.45;7.25;;;;;;;15.90;47.18;103126.84;4998239;28;20048;-62
2024/01/31 00:42:59;;;;;;;12.45;5.78;;;;;;;15.89;45.81;103119.69;5015875;28;20034;-62
2024/01/31 00:45:25;;;;;;;15.63;7.63;;;;;;;15.86;47.02;103123.50;4998095;28;20025;-62
2024/01/31 00:47:50;;;;;;;12.48;6.20;;;;;;;15.87;46.35;103132.47;5015712;28;20037;-62
2024/01/31 00:50:16;;;;;;;15.43;6.38;;;;;;;15.85;46.94;103131.72;5015886;28;20018;-61
2024/01/31 00:52:41;;;;;;;11.07;6.57;;;;;;;15.85;46.78;103131.72;5014618;28;20037;-62
2024/01/31 00:55:07;;;;;;;16.35;7.85;;;;;;;15.87;46.74;103135.16;4997969;28;20022;-61
2024/01/31 00:57:33;;;;;;;12.57;6.35;;;;;;;15.86;47.12;103136.13;4995020;28;20505;-61
2024/01/31 00:59:58;;;;;;;12.90;6.82;;;;;;;15.83;46.25;103134.50;5004027;28;20061;-61
2024/01/31 01:02:24;;;;;;;11.55;6.07;;;;;;;15.84;45.98;103143.50;4996133;28;20034;-61
2024/01/31 01:04:51;;;;;;;16.27;7.25;;;;;;;15.84;47.25;103147.06;4995979;28;20026;-62
2024/01/31 01:07:16;;;;;;;12.30;7.35;;;;;;;15.82;45.89;103148.16;4994999;28;20092;-62
2024/01/31 01:09:42;;;;;;;14.23;5.85;;;;;;;15.81;47.36;103149.97;5000251;28;20027;-62
2024/01/31 01:12:07;;;;;;;14.55;7.22;;;;;;;15.82;46.31;103158.97;5000310;28;20398;-62
2024/01/31 01:14:32;;;;;;;15.90;7.22;;;;;;;15.81;47.03;103162.63;4997047;28;20030;-62
2024/01/31 01:16:58;;;;;;;15.18;7.53;;;;;;;15.80;46.70;103155.50;5012703;28;20108;-62
2024/01/31 01:19:23;;;;;;;13.05;6.85;;;;;;;15.79;46.34;103160.03;4997895;28;20427;-61
2024/01/31 01:21:50;;;;;;;13.57;6.97;;;;;;;15.78;46.43;103157.41;5003216;28;20393;-62
2024/01/31 01:24:15;;;;;;;17.45;6.90;;;;;;;15.74;46.10;103165.75;5013892;28;20069;-61
2024/01/31 01:26:41;;;;;;;13.65;7.47;;;;;;;15.72;46.73;103162.28;5013764;28;20057;-61
2024/01/31 01:29:07;;;;;;;13.07;6.43;;;;;;;15.71;46.59;103162.41;5013807;28;20116;-62
2024/01/31 01:31:32;;;;;;;12.43;6.70;;;;;;;15.67;47.81;103153.63;4997318;28;20413;-61
2024/01/31 01:33:59;;;;;;;18.90;7.30;;;;;;;15.69;47.36;103165.19;5013828;28;20033;-61
2024/01/31 01:36:25;;;;;;;15.00;7.75;;;;;;;15.67;46.94;103167.16;5015218;28;20041;-61
2024/01/31 01:38:50;;;;;;;15.30;7.68;;;;;;;15.66;47.64;103169.97;5013621;28;20029;-62
2024/01/31 01:41:16;;;;;;;13.82;6.97;;;;;;;15.65;47.05;103184.44;5015143;28;20026;-62
2024/01/31 01:43:42;;;;;;;14.45;7.57;;;;;;;15.61;47.63;103162.16;5014763;28;20025;-62
2024/01/31 01:46:18;;;;;;;15.38;7.18;;;;;;;15.63;47.58;103165.59;4997616;28;20030;-62
2024/01/31 01:48:44;;;;;;;19.60;8.18;;;;;;;15.63;46.99;103176.41;5014057;28;20025;-62
2024/01/31 01:51:09;;;;;;;15.40;7.28;;;;;;;15.63;46.68;103175.56;4997106;28;20378;-61
2024/01/31 01:53:36;;;;;;;15.13;8.25;;;;;;;15.61;47.77;103170.25;5013354;28;20113;-61
2024/01/31 01:56:05;;;;;;;17.05;8.63;;;;;;;15.60;47.88;103173.94;5013155;28;20097;-61
2024/01/31 01:58:32;;;;;;;18.77;8.20;;;;;;;15.61;47.95;103177.50;5014621;28;20092;-62
2024/01/31 02:00:59;;;;;;;21.98;7.88;;;;;;;15.60;47.04;103181.19;5013762;28;20053;-62
2024/01/31 02:03:25;;;;;;;16.38;8.30;;;;;;;15.59;47.88;103180.31;5013558;28;20037;-61
2024/01/31 02:05:50;;;;;;;16.48;8.52;;;;;;;15.56;47.99;103180.50;4996604;28;20100;-62
2024/01/31 02:08:16;;;;;;;23.00;9.95;;;;;;;15.58;47.57;103178.56;5014266;28;20037;-62
2024/01/31 02:10:42;;;;;;;20.98;8.98;;;;;;;15.56;47.79;103177.81;5013424;28;20034;-62
2024/01/31 02:13:07;;;;;;;17.42;8.48;;;;;;;15.52;47.46;103168.16;5014298;28;20448;-62
2024/01/31 02:15:32;;;;;;;19.10;7.78;;;;;;;15.54;48.44;103176.19;5011630;28;20062;-61
2024/01/31 02:17:58;;;;;;;19.75;8.60;;;;;;;15.54;46.96;103174.34;5012446;28;20165;-62
2024/01/31 02:20:24;;;;;;;24.80;9.38;;;;;;;15.51;47.55;103171.88;5014125;28;20042;-62
2024/01/31 02:22:50;;;;;;;19.25;8.18;;;;;;;15.52;48.69;103173.56;5012794;28;20070;-63
2024/01/31 02:25:15;;;;;;;20.02;9.40;;;;;;;15.53;47.44;103171.75;4995773;28;20119;-62
2024/01/31 02:27:41;;;;;;;22.70;9.63;;;;;;;15.50;47.80;103172.81;5012695;28;20037;-62
2024/01/31 02:30:10;;;;;;;19.77;8.63;;;;;;;15.49;47.70;103165.72;5012643;28;20113;-61
2024/01/31 02:32:36;;;;;;;20.92;9.10;;;;;;;15.50;48.26;103172.81;4996014;28;20408;-62
2024/01/31 02:35:03;;;;;;;20.40;8.80;;;;;;;15.51;47.27;103171.00;4996159;28;20121;-62
2024/01/31 02:37:29;;;;;;;16.25;8.40;;;;;;;15.50;47.36;103175.53;5012939;28;20468;-61
2024/01/31 02:39:54;;;;;;;21.38;9.82;;;;;;;15.49;48.65;103179.22;5012507;28;20050;-61
2024/01/31 02:42:20;;;;;;;18.90;8.85;;;;;;;15.49;47.34;103181.91;5012545;28;20429;-62
2024/01/31 02:44:45;;;;;;;19.10;9.40;;;;;;;15.49;48.20;103181.91;5012571;28;20058;-62
2024/01/31 02:47:10;;;;;;;19.33;9.13;;;;;;;15.48;48.15;103182.88;4996025;28;20030;-62
2024/01/31 02:49:36;;;;;;;18.88;9.15;;;;;;;15.49;48.06;103181.91;4995942;28;20448;-61
2024/01/31 02:52:01;;;;;;;27.02;9.38;;;;;;;15.47;47.82;103178.44;5014121;28;20037;-61
2024/01/31 02:54:26;;;;;;;17.92;9.57;;;;;;;15.48;48.28;103182.00;4995765;28;20038;-62
2024/01/31 02:56:52;;;;;;;22.48;8.95;;;;;;;15.48;48.50;103182.88;5012014;28;20056;-62
2024/01/31 02:59:19;;;;;;;18.83;9.57;;;;;;;15.47;48.76;103173.03;4995987;28;20029;-61
2024/01/31 03:01:45;;;;;;;25.30;9.75;;;;;;;15.47;47.54;103174.84;4996310;28;20493;-61
2024/01/31 03:04:11;;;;;;;20.17;9.40;;;;;;;15.46;49.03;103165.91;5013474;28;20112;-61
2024/01/31 03:06:36;;;;;;;23.38;9.95;;;;;;;15.44;48.68;103162.38;4995993;28;20049;-61
2024/01/31 03:09:02;;;;;;;17.33;9.00;;;;;;;15.46;48.47;103168.63;5011993;28;20489;-61
2024/01/31 03:11:27;;;;;;;19.33;9.05;;;;;;;15.44;48.62;103167.78;5013570;28;20409;-62
2024/01/31 03:13:53;;;;;;;25.33;10.60;;;;;;;15.47;47.50;103181.13;5013482;28;20545;-61
2024/01/31 03:16:18;;;;;;;22.05;9.93;;;;;;;15.45;48.58;103169.53;5011684;28;20126;-63
2024/01/31 03:18:44;;;;;;;20.40;9.50;;;;;;;15.44;48.32;103169.63;5012044;28;20041;-61
2024/01/31 03:21:09;;;;;;;25.83;10.73;;;;;;;15.43;47.95;103166.09;5013557;28;20026;-62
2024/01/31 03:23:34;;;;;;;22.63;9.88;;;;;;;15.43;48.77;103171.47;4995509;28;20049;-62
2024/01/31 03:26:00;;;;;;;20.90;9.32;;;;;;;15.43;47.81;103173.31;5013171;28;20037;-62
2024/01/31 03:28:25;;;;;;;24.35;9.40;;;;;;;15.42;47.50;103167.03;5011772;28;20092;-62
2024/01/31 03:30:50;;;;;;;18.83;8.93;;;;;;;15.42;47.92;103169.75;5011851;28;20057;-62
2024/01/31 03:33:16;;;;;;;23.80;10.30;;;;;;;15.39;48.85;103167.25;5013127;28;20038;-61
2024/01/31 03:35:42;;;;;;;24.13;9.15;;;;;;;15.41;47.85;103164.47;4995544;28;20037;-61
2024/01/31 03:38:08;;;;;;;24.05;9.40;;;;;;;15.41;48.45;103169.84;5014259;28;20041;-61
2024/01/31 03:40:33;;;;;;;27.98;10.10;;;;;;;15.36;48.22;103162.03;5000044;28;20034;-62
2024/01/31 03:42:59;;;;;;;19.45;8.20;;;;;;;15.37;48.46;103158.38;5017039;28;20041;-62
2024/01/31 03:45:26;;;;;;;19.58;8.38;;;;;;;15.38;47.55;103159.25;4999385;28;20115;-61
2024/01/31 03:47:51;;;;;;;20.00;8.77;;;;;;;15.34;48.63;103147.78;5016044;28;20117;-61
2024/01/31 03:50:17;;;;;;;19.73;8.60;;;;;;;15.35;48.62;103160.34;5015670;28;20581;-61
2024/01/31 03:52:42;;;;;;;22.63;9.15;;;;;;;15.33;48.47;103156.84;5015794;28;20508;-61
2024/01/31 03:55:09;;;;;;;22.88;8.68;;;;;;;15.33;48.49;103153.28;4999084;28;20160;-61
2024/01/31 03:57:34;;;;;;;22.33;9.20;;;;;;;15.32;49.24;103160.53;5015689;28;20091;-61
2024/01/31 04:00:04;;;;;;;21.95;8.70;;;;;;;15.29;49.04;103149.94;5015476;28;20498;-62
2024/01/31 04:02:30;;;;;;;19.65;7.80;;;;;;;15.28;47.90;103153.59;5016692;28;20099;-62
2024/01/31 04:04:55;;;;;;;21.50;8.85;;;;;;;15.28;48.11;103160.81;4999228;28;20050;-62
2024/01/31 04:07:20;;;;;;;19.85;7.32;;;;;;;15.27;49.06;103146.44;5016549;28;20041;-62
2024/01/31 04:09:46;;;;;;;19.90;6.63;;;;;;;15.25;48.97;103148.41;5015513;28;20030;-62
2024/01/31 04:12:12;;;;;;;12.20;5.70;;;;;;;15.24;48.85;103152.09;5015203;28;20045;-61
2024/01/31 04:14:37;;;;;;;9.77;4.55;;;;;;;15.23;47.91;103152.16;5015303;28;20096;-62
2024/01/31 04:17:02;;;;;;;11.75;4.65;;;;;;;15.22;47.82;103145.03;4998553;28;20505;-62
2024/01/31 04:19:28;;;;;;;7.75;3.63;;;;;;;15.19;48.13;103138.00;5015170;28;20503;-62
2024/01/31 04:21:54;;;;;;;9.82;3.80;;;;;;;15.19;47.77;103135.31;5016450;28;20493;-61
2024/01/31 04:24:19;;;;;;;11.90;3.45;;;;;;;15.18;48.12;103125.50;5015159;28;20053;-63
2024/01/31 04:26:44;;;;;;;10.18;3.85;;;;;;;15.11;47.84;103116.94;5016236;28;20053;-62
2024/01/31 04:29:10;;;;;;;9.80;3.72;;;;;;;15.07;47.91;103112.69;5015125;28;20183;-61
2024/01/31 04:31:35;;;;;;;11.07;4.97;;;;;;;15.05;48.68;103125.44;5016451;28;20034;-62
2024/01/31 04:34:04;;;;;;;7.03;2.65;;;;;;;15.04;48.45;103122.84;5000994;28;20037;-62
2024/01/31 04:36:30;;;;;;;7.72;3.10;;;;;;;15.03;48.34;103126.50;5016239;28;20038;-62
2024/01/31 04:38:55;;;;;;;8.13;3.38;;;;;;;14.99;47.95;103125.81;4998441;28;20041;-61
2024/01/31 04:41:20;;;;;;;5.78;2.78;;;;;;;14.99;48.77;103130.38;5015883;28;20045;-61
2024/01/31 04:43:46;;;;;;;15.15;3.53;;;;;;;14.97;48.01;103135.00;5014746;28;20072;-62
2024/01/31 04:46:14;;;;;;;7.35;3.35;;;;;;;14.96;47.24;103144.91;4997164;28;20033;-61
2024/01/31 04:48:40;;;;;;;7.30;4.10;;;;;;;14.95;47.47;103145.91;5013163;28;20041;-62
2024/01/31 04:51:05;;;;;;;11.90;2.85;;;;;;;14.94;47.32;103137.88;5014560;28;20394;-62
2024/01/31 04:53:31;;;;;;;6.40;2.67;;;;;;;14.94;48.95;103140.59;5015768;28;20065;-61
2024/01/31 04:55:56;;;;;;;6.60;2.45;;;;;;;14.92;47.91;103131.75;4997864;28;20037;-62
2024/01/31 04:58:21;;;;;;;9.75;3.30;;;;;;;14.87;48.21;103123.09;5015660;28;20405;-61
2024/01/31 05:00:47;;;;;;;7.30;2.70;;;;;;;14.89;47.74;103129.25;4998010;28;20041;-62
2024/01/31 05:03:13;;;;;;;4.50;2.67;;;;;;;14.87;47.85;103126.66;5015630;28;20033;-61
2024/01/31 05:05:38;;;;;;;8.52;2.33;;;;;;;14.87;48.01;103125.78;4997889;28;20109;-62
2024/01/31 05:08:05;;;;;;;5.85;2.45;;;;;;;14.84;47.26;103126.84;4997972;28;20083;-62
2024/01/31 05:10:33;;;;;;;6.70;2.38;;;;;;;14.78;47.49;103115.59;5013342;28;20115;-61
2024/01/31 05:12:59;;;;;;;7.35;2.60;;;;;;;14.77;48.03;103119.28;5015701;28;20547;-61
2024/01/31 05:15:24;;;;;;;6.80;2.67;;;;;;;14.73;47.55;103112.31;5015348;28;20034;-61
2024/01/31 05:17:50;;;;;;;8.40;2.33;;;;;;;14.75;48.27;103121.19;5013763;28;20050;-62
2024/01/31 05:20:15;;;;;;;5.65;2.55;;;;;;;14.70;47.60;103113.41;5015374;28;20029;-61
2024/01/31 05:22:41;;;;;;;6.35;3.08;;;;;;;14.72;48.09;103121.38;4997476;28;20034;-62
2024/01/31 05:25:07;;;;;;;9.88;2.20;;;;;;;14.68;47.78;103125.25;5014228;28;20037;-62
2024/01/31 05:27:33;;;;;;;5.38;2.15;;;;;;;14.63;48.13;103116.59;5013941;28;20026;-62
2024/01/31 05:29:58;;;;;;;6.57;2.45;;;;;;;14.63;47.94;103124.69;5014176;28;20030;-61
2024/01/31 05:32:23;;;;;;;7.40;3.03;;;;;;;14.61;48.77;103113.13;5015102;28;20061;-61
2024/01/31 05:34:49;;;;;;;6.00;2.05;;;;;;;14.58;47.93;103115.06;5015053;28;20034;-62
2024/01/31 05:37:14;;;;;;;7.45;2.45;;;;;;;14.56;47.13;103117.00;5017798;28;20064;-62
2024/01/31 05:39:40;;;;;;;4.75;2.47;;;;;;;14.56;47.34;103124.22;5018023;28;20051;-62
2024/01/31 05:42:05;;;;;;;5.28;2.30;;;;;;;14.57;48.06;103132.19;5017384;28;20033;-61
2024/01/31 05:44:30;;;;;;;8.95;2.58;;;;;;;14.56;47.75;103130.47;4998399;28;20081;-62
2024/01/31 05:46:56;;;;;;;7.35;1.83;;;;;;;14.56;48.79;103130.47;5013838;28;20030;-61
2024/01/31 05:49:21;;;;;;;7.10;2.42;;;;;;;14.58;47.86;103135.75;5015157;28;20036;-62
2024/01/31 05:51:47;;;;;;;10.95;3.00;;;;;;;14.57;47.73;103140.28;5013423;28;20091;-62
2024/01/31 05:54:12;;;;;;;6.22;2.35;;;;;;;14.62;47.77;103133.75;5014756;28;20409;-62
2024/01/31 05:56:38;;;;;;;7.10;2.55;;;;;;;14.62;48.18;103133.75;5013760;28;20083;-62
2024/01/31 05:59:03;;;;;;;4.72;1.75;;;;;;;14.60;47.44;103125.72;5014589;28;20026;-61
2024/01/31 06:01:28;;;;;;;5.75;2.40;;;;;;;14.61;48.68;103126.59;5012938;28;20081;-61
2024/01/31 06:03:54;;;;;;;5.25;2.42;;;;;;;14.61;48.02;103126.59;5014420;28;20501;-61
2024/01/31 06:06:19;;;;;;;7.05;3.03;;;;;;;14.63;48.98;103122.00;4996750;28;20030;-62
2024/01/31 06:08:47;;;;;;;11.45;3.00;;;;;;;14.62;47.73;103125.66;4996769;28;20044;-61
2024/01/31 06:11:13;;;;;;;5.65;2.55;;;;;;;14.62;49.03;103131.03;5014280;28;20029;-62
2024/01/31 06:13:39;;;;;;;6.22;2.50;;;;;;;14.66;48.65;103127.16;4996520;28;20041;-62
2024/01/31 06:16:04;;;;;;;9.73;3.10;;;;;;;14.65;47.96;103122.75;5012553;28;20048;-61
2024/01/31 06:18:34;;;;;;;6.32;2.97;;;;;;;14.65;48.21;103125.44;5012793;28;20038;-62
2024/01/31 06:21:02;;;;;;;10.55;2.90;;;;;;;14.64;49.04;103121.88;5013027;28;20061;-61
2024/01/31 06:23:28;;;;;;;10.75;3.45;;;;;;;14.67;47.83;103118.13;5012873;28;20041;-61
2024/01/31 06:25:55;;;;;;;11.05;3.50;;;;;;;14.64;47.92;103112.91;5012711;28;20076;-62
2024/01/31 06:28:20;;;;;;;8.75;3.75;;;;;;;14.66;48.03;103124.47;5014072;28;20462;-62
2024/01/31 06:30:48;;;;;;;10.10;3.47;;;;;;;14.68;47.45;103119.84;5012915;28;20533;-62
2024/01/31 06:33:14;;;;;;;9.90;3.70;;;;;;;14.66;48.24;103116.38;5012334;28;20405;-61
2024/01/31 06:35:47;;;;;;;8.70;2.97;;;;;;;14.66;47.50;103113.69;5002582;28;20029;-61
2024/01/31 06:38:13;;;;;;;10.95;3.33;;;;;;;14.65;48.55;103112.84;4983861;28;20022;-63
2024/01/31 06:40:38;;;;;;;7.88;3.45;;;;;;;14.64;48.15;103121.00;5009479;28;20030;-63
2024/01/31 06:43:10;;;;;;;8.80;3.65;;;;;;;14.66;48.77;103127.16;5012902;28;20155;-61
2024/01/31 06:45:36;;;;;;;9.10;3.40;;;;;;;14.67;48.92;103127.06;4996149;28;20053;-61
2024/01/31 06:48:03;;;;;;;8.50;3.40;;;;;;;14.69;48.32;103140.47;5012322;28;20053;-61
2024/01/31 06:50:29;;;;;;;14.82;4.80;;;;;;;14.70;48.06;103134.09;5012292;28;20571;-62
2024/01/31 06:52:54;;;;;;;7.00;3.67;;;;;;;14.68;48.68;103134.22;5012178;28;20050;-62
2024/01/31 06:55:19;;;;;;;11.05;4.38;;;;;;;14.72;47.80;103145.66;5013261;28;20116;-62
2024/01/31 06:57:45;;;;;;;15.00;4.65;;;;;;;14.71;47.93;103139.41;4996100;28;20448;-61
2024/01/31 07:00:11;;;;;;;17.45;5.55;;;;;;;14.71;48.73;103135.84;5012103;28;20038;-61
2024/01/31 07:02:36;;;;;;;10.88;4.15;;;;;;;14.71;48.36;103131.31;5012265;28;20080;-61
2024/01/31 07:05:04;;;;;;;10.90;3.47;;;;;;;14.69;47.66;103121.56;5013490;28;20038;-61
2024/01/31 07:07:29;;;;;;;13.30;4.32;;;;;;;14.69;47.59;103125.13;4995988;28;20486;-62
2024/01/31 07:09:54;;;;;;;12.27;5.18;;;;;;;14.70;47.60;103120.63;5012108;28;20034;-61
2024/01/31 07:12:20;;;;;;;20.88;5.18;;;;;;;14.68;47.70;103114.47;5012674;28;20509;-61
2024/01/31 07:14:45;;;;;;;21.13;7.68;;;;;;;14.69;48.06;103116.19;5013273;28;20489;-61
2024/01/31 07:17:10;;;;;;;20.85;6.43;;;;;;;14.67;48.33;103118.13;5012880;28;20041;-61
2024/01/31 07:19:36;;;;;;;19.55;7.28;;;;;;;14.68;48.52;103117.16;5012880;28;20062;-61
2024/01/31 07:22:01;;;;;;;18.77;7.40;;;;;;;14.71;48.26;103114.25;5012034;28;20038;-61
2024/01/31 07:24:27;;;;;;;19.27;7.85;;;;;;;14.66;48.85;103094.78;5012987;28;20026;-62
2024/01/31 07:26:53;;;;;;;23.50;9.55;;;;;;;14.70;48.19;103099.91;5012002;28;20049;-62
2024/01/31 07:29:18;;;;;;;24.88;8.75;;;;;;;14.72;47.82;103110.59;4995481;28;20057;-62
2024/01/31 07:31:44;;;;;;;26.63;9.82;;;;;;;14.70;48.15;103101.72;5011897;28;20717;-61
2024/01/31 07:34:09;;;;;;;23.63;10.00;;;;;;;14.67;49.09;103102.81;5011780;28;20038;-61
2024/01/31 07:36:34;;;;;;;26.77;9.60;;;;;;;14.71;48.92;103095.38;4995592;28;20033;-61
2024/01/31 07:39:00;;;;;;;30.10;11.95;;;;;;;14.73;48.27;103101.53;4995301;28;20129;-61
2024/01/31 07:41:25;;;;;;;25.92;10.02;;;;;;;14.76;49.17;103101.34;5013399;28;20037;-62
2024/01/31 07:43:50;;;;;;;25.10;10.05;;;;;;;14.75;47.91;103116.66;5012052;28;20444;-61
2024/01/31 07:46:16;;;;;;;30.98;10.07;;;;;;;14.77;48.29;103119.28;5011706;28;20058;-61
2024/01/31 07:48:41;;;;;;;21.02;10.05;;;;;;;14.77;48.63;103125.50;5011623;28;20037;-61
2024/01/31 07:51:07;;;;;;;29.48;11.07;;;;;;;14.80;49.68;103133.41;5012866;28;20034;-62
2024/01/31 07:53:32;;;;;;;28.05;11.20;;;;;;;14.80;49.20;103143.31;5011524;28;20030;-62
2024/01/31 07:55:57;;;;;;;30.02;11.40;;;;;;;14.84;48.13;103164.63;5011617;28;20038;-62
2024/01/31 07:58:23;;;;;;;25.45;11.43;;;;;;;14.88;49.47;103166.16;5011536;28;20034;-61
2024/01/31 08:00:48;;;;;;;29.48;10.88;;;;;;;14.92;48.69;103166.81;5012976;28;20085;-61
2024/01/31 08:03:14;;;;;;;29.90;11.55;;;;;;;14.94;49.21;103171.16;5012634;28;20068;-62
2024/01/31 08:05:39;;;;;;;30.40;10.88;;;;;;;14.99;49.87;103174.41;5011603;28;20077;-61
2024/01/31 08:08:05;;;;;;;23.63;10.52;;;;;;;15.01;49.25;103182.41;5011868;28;20046;-62
2024/01/31 08:10:30;;;;;;;26.67;10.60;;;;;;;15.02;48.67;103173.34;5011658;28;20029;-61
2024/01/31 08:12:56;;;;;;;23.63;10.52;;;;;;;15.04;49.48;103171.44;5011435;28;20037;-61
2024/01/31 08:15:21;;;;;;;25.63;11.18;;;;;;;15.02;48.83;103162.53;5012391;28;20055;-61
2024/01/31 08:17:47;;;;;;;25.50;10.18;;;;;;;15.02;49.10;103178.75;5010982;28;20045;-62
2024/01/31 08:20:12;;;;;;;23.77;9.95;;;;;;;15.03;49.29;103175.97;5012856;28;20405;-61
2024/01/31 08:22:37;;;;;;;27.75;9.63;;;;;;;15.06;49.43;103180.28;4994957;28;20104;-61
2024/01/31 08:25:04;;;;;;;21.42;10.23;;;;;;;15.07;49.01;103185.56;5016323;28;20061;-61
2024/01/31 08:27:29;;;;;;;25.30;10.20;;;;;;;15.09;49.23;103186.34;5015076;28;20411;-62
2024/01/31 08:29:55;;;;;;;23.10;9.18;;;;;;;15.10;49.54;103176.44;5014719;28;20030;-62
2024/01/31 08:32:20;;;;;;;20.20;9.43;;;;;;;15.13;49.51;103176.22;5014827;28;20409;-61
2024/01/31 08:34:45;;;;;;;23.58;10.40;;;;;;;15.13;49.52;103174.38;5014815;28;20109;-62
2024/01/31 08:37:11;;;;;;;23.08;9.65;;;;;;;15.15;49.27;103174.28;5014896;28;20073;-62
2024/01/31 08:39:36;;;;;;;18.63;8.35;;;;;;;15.18;48.32;103173.22;5014602;28;20485;-62
2024/01/31 08:42:02;;;;;;;26.52;10.13;;;;;;;15.17;49.99;103172.34;5014636;28;20444;-61
2024/01/31 08:44:27;;;;;;;22.25;9.30;;;;;;;15.18;49.21;103176.78;5014670;28;20034;-62
2024/01/31 08:46:53;;;;;;;28.02;10.18;;;;;;;15.20;49.03;103188.34;5014609;28;20061;-62
2024/01/31 08:49:20;;;;;;;18.88;9.30;;;;;;;15.16;49.81;103176.88;5016090;28;20050;-62
2024/01/31 08:51:46;;;;;;;25.02;10.00;;;;;;;15.18;49.76;103179.50;4998844;28;20030;-62
2024/01/31 08:54:12;;;;;;;24.20;10.50;;;;;;;15.19;49.90;103170.41;4998458;28;20030;-62
2024/01/31 08:56:37;;;;;;;23.20;9.20;;;;;;;15.21;49.61;103162.22;5015669;28;20038;-62
2024/01/31 08:59:03;;;;;;;21.35;8.70;;;;;;;15.18;49.17;103163.28;4997914;28;20029;-62
2024/01/31 09:01:28;;;;;;;25.08;9.77;;;;;;;15.20;48.55;103177.53;5015847;28;20045;-62
2024/01/31 09:03:55;;;;;;;24.55;10.32;;;;;;;15.21;48.92;103179.28;4998220;28;20030;-61
2024/01/31 09:06:21;;;;;;;25.05;9.40;;;;;;;15.22;48.29;103181.00;5015670;28;20034;-62
2024/01/31 09:08:46;;;;;;;21.90;9.75;;;;;;;15.22;49.61;103174.72;5015787;28;20156;-61
2024/01/31 09:11:12;;;;;;;27.98;10.52;;;;;;;15.23;48.29;103182.75;4997770;28;20045;-62
2024/01/31 09:13:37;;;;;;;25.33;10.13;;;;;;;15.25;48.86;103172.69;5014436;28;20034;-61
2024/01/31 09:16:03;;;;;;;24.25;9.48;;;;;;;15.25;48.84;103158.31;5013703;28;20041;-62
2024/01/31 09:18:28;;;;;;;22.90;9.45;;;;;;;15.31;48.33;103161.50;5014009;28;20450;-62
2024/01/31 09:20:54;;;;;;;17.00;8.90;;;;;;;15.31;48.66;103156.09;4997603;28;20034;-62
2024/01/31 09:23:19;;;;;;;18.40;9.20;;;;;;;15.30;48.71;103167.00;5015197;28;20112;-62
2024/01/31 09:25:44;;;;;;;22.35;9.43;;;;;;;15.31;49.09;103169.59;5013943;28;20405;-61
2024/01/31 09:28:10;;;;;;;19.70;9.00;;;;;;;15.33;49.20;103164.94;5013749;28;20053;-62
2024/01/31 09:30:35;;;;;;;21.05;9.20;;;;;;;15.36;48.24;103156.66;4997404;28;20034;-61
2024/01/31 09:33:00;;;;;;;22.00;8.38;;;;;;;15.37;48.38;103152.13;5015271;28;20375;-62
2024/01/31 09:35:26;;;;;;;16.58;8.27;;;;;;;15.38;48.73;103149.28;5014240;28;20512;-61
2024/01/31 09:37:52;;;;;;;20.90;8.82;;;;;;;15.38;48.34;103133.09;5015230;28;20053;-62
2024/01/31 09:40:19;;;;;;;21.02;8.45;;;;;;;15.39;48.00;103128.56;5013845;28;20037;-61
2024/01/31 09:42:45;;;;;;;14.23;7.60;;;;;;;15.43;47.81;103130.97;4997592;28;20049;-62
2024/01/31 09:45:14;;;;;;;18.80;7.47;;;;;;;15.40;47.98;103127.59;5013474;28;20493;-62
2024/01/31 09:47:43;;;;;;;16.45;6.85;;;;;;;15.42;48.01;103123.81;5015048;28;20397;-62
2024/01/31 09:50:09;;;;;;;17.40;7.43;;;;;;;15.44;47.70;103116.47;5015018;28;20030;-62
2024/01/31 09:52:35;;;;;;;13.15;6.50;;;;;;;15.49;48.21;103111.69;5014418;28;20088;-61
2024/01/31 09:55:01;;;;;;;12.40;5.75;;;;;;;15.52;47.84;103108.75;5013400;28;20034;-61
2024/01/31 09:57:27;;;;;;;13.00;5.75;;;;;;;15.54;47.79;103106.81;4997545;28;20398;-61
2024/01/31 09:59:55;;;;;;;13.60;5.57;;;;;;;15.54;47.45;103100.53;5015801;28;20038;-61
2024/01/31 10:02:21;;;;;;;10.25;5.15;;;;;;;15.55;47.80;103108.53;5009679;28;20540;-61
2024/01/31 10:04:48;;;;;;;8.45;4.85;;;;;;;15.56;48.54;103094.06;5014600;28;20042;-61
2024/01/31 10:07:22;;;;;;;9.52;5.05;;;;;;;15.59;48.21;103099.25;5014325;28;20029;-61
2024/01/31 10:09:49;;;;;;;9.65;4.85;;;;;;;15.61;47.54;103105.41;5014237;28;20046;-62
2024/01/31 10:12:15;;;;;;;9.80;4.90;;;;;;;15.64;46.91;103102.50;5014442;28;20502;-62
2024/01/31 10:14:42;;;;;;;8.52;4.32;;;;;;;15.66;46.69;103095.16;5014331;28;20048;-62
2024/01/31 10:17:07;;;;;;;8.35;4.65;;;;;;;15.69;48.10;103092.22;5012454;28;20042;-62
2024/01/31 10:19:33;;;;;;;8.32;4.82;;;;;;;15.68;47.48;103087.81;5012956;28;20048;-61
2024/01/31 10:21:58;;;;;;;11.55;5.43;;;;;;;15.70;47.49;103080.47;5012801;28;20050;-61
2024/01/31 10:24:23;;;;;;;8.95;4.63;;;;;;;15.71;47.61;103075.94;5012861;28;20111;-62
2024/01/31 10:26:48;;;;;;;13.23;5.20;;;;;;;15.72;48.09;103065.00;5013794;28;20409;-61
2024/01/31 10:29:14;;;;;;;10.15;4.82;;;;;;;15.71;46.81;103049.78;5013928;28;20417;-61
2024/01/31 10:31:40;;;;;;;12.00;5.50;;;;;;;15.69;46.51;103050.84;5012664;28;20448;-61
2024/01/31 10:34:05;;;;;;;13.30;5.60;;;;;;;15.69;46.59;103051.69;5012826;28;20037;-62
2024/01/31 10:36:31;;;;;;;9.70;5.05;;;;;;;15.72;46.70;103056.03;5012597;28;20378;-61
2024/01/31 10:38:56;;;;;;;12.43;5.03;;;;;;;15.74;46.82;103060.34;4996118;28;20037;-62
2024/01/31 10:41:22;;;;;;;10.57;4.90;;;;;;;15.76;47.44;103059.38;5012518;28;20401;-61
2024/01/31 10:43:48;;;;;;;11.32;6.13;;;;;;;15.78;46.50;103065.53;5012708;28;20387;-61
2024/01/31 10:46:14;;;;;;;12.90;6.30;;;;;;;15.78;46.93;103060.13;5012680;28;20026;-62
2024/01/31 10:48:39;;;;;;;11.52;5.55;;;;;;;15.82;47.35;103058.97;5012712;28;20041;-62
2024/01/31 10:51:05;;;;;;;9.63;5.15;;;;;;;15.84;46.93;103062.41;5013869;28;20064;-61
2024/01/31 10:53:32;;;;;;;9.85;5.45;;;;;;;15.87;46.14;103048.69;5012161;28;20037;-62
2024/01/31 10:55:58;;;;;;;10.40;5.05;;;;;;;15.86;46.35;103049.63;5012066;28;20048;-61
2024/01/31 10:58:24;;;;;;;11.93;4.97;;;;;;;15.90;45.48;103060.16;5012257;28;20088;-61
2024/01/31 11:00:49;;;;;;;11.60;5.75;;;;;;;15.93;46.67;103059.06;5012470;28;20032;-62
2024/01/31 11:03:16;;;;;;;10.18;4.90;;;;;;;15.98;45.50;103062.28;5012321;28;20037;-62
2024/01/31 11:05:41;;;;;;;15.32;6.45;;;;;;;15.98;46.61;103067.69;5012247;28;20444;-61
2024/01/31 11:08:24;;;;;;;13.60;5.63;;;;;;;15.97;47.01;103053.31;5012086;28;20037;-61
2024/01/31 11:10:49;;;;;;;8.60;4.87;;;;;;;15.99;46.56;103056.78;5012341;28;20030;-62
2024/01/31 11:13:15;;;;;;;8.48;4.72;;;;;;;15.98;46.54;103059.59;5012244;28;20259;-61